Historique des mesures à Cassis (13260), France
Quotidien Résumé Janvier 22, 2018 Unités:  Métrique/US    US   Métrique
« Précédent (Jour)
Suivant (Jour) »
Quotidien Hebdomadaire Mensuel Annuel Période au choix
  Maximum: Minimum: Moyenne:
Température: 32 °F /  TemperatureC °C 56.5 °F /  13.6 °C 58.1 °F /  14.5 °C
Point de rosée: 32 °F /  DewpointC °C 44.4 °F /  6.9 °C 45.5 °F /  7.5 °C
Humidité: Humidity % 54 % 59 %
Vitesse du vent: WindSpeedKMH mph /  0 km/h - 17.9 mph /  28.8 km/h
Rafales: WindSpeedGustKMH mph /  0 km/h - -
Vent:- - WNW
Pression: 0 in /  PressurehPa hPa 29.9 in /  1012.8 hPa -
Précipitations: 0 in /  0.0 mm    
Historical Graphs
 
 
Mesures pour : Janvier 22, 2018
Heure Temperature Point de rosée Pression Vent Vitesse du vent Rafales Humidité Pluie (par heure) Conditions
32 °F /  TemperatureC °C 32 °F /  DewpointC °C 0 in /  PressurehPa hPa Calm     Humidity % 0 in /  HourlyPrecipMM mm SoftwareType W/m2
00:12 59.2 °F /  15.1 °C 46.2 °F /  7.9 °C 29.9 in /  1012.8 hPa NW 9.7 mph /  15.6 km/h 12.6 mph /  20.3 km/h 62 % 0 in /  0.0 mm open2300-1.11 W/m2
01:12 58.1 °F /  14.5 °C 46 °F /  7.8 °C 29.9 in /  1013.1 hPa WNW 29.4 mph /  47.3 km/h 29.4 mph /  47.3 km/h 64 % 0 in /  0.0 mm open2300-1.11 W/m2
02:12 57.4 °F /  14.1 °C 45.7 °F /  7.6 °C 29.9 in /  1013.1 hPa WNW 10.1 mph /  16.3 km/h 10.1 mph /  16.3 km/h 65 % 0 in /  0.0 mm open2300-1.11 W/m2
03:12 56.8 °F /  13.8 °C 45.5 °F /  7.5 °C 29.9 in /  1013.4 hPa NNW 8.2 mph /  13.2 km/h 28.2 mph /  45.4 km/h 66 % 0 in /  0.0 mm open2300-1.11 W/m2
05:12 56.5 °F /  13.6 °C 44.4 °F /  6.9 °C 29.9 in /  1013.1 hPa West 9.3 mph /  15 km/h 21.2 mph /  34.1 km/h 64 % 0 in /  0.0 mm open2300-1.11 W/m2
06:12 56.5 °F /  13.6 °C 44.4 °F /  6.9 °C 29.9 in /  1012.8 hPa NW 24.8 mph /  39.9 km/h 24.8 mph /  39.9 km/h 64 % 0 in /  0.0 mm open2300-1.11 W/m2
07:12 57 °F /  13.9 °C 44.4 °F /  6.9 °C 29.9 in /  1012.8 hPa WNW 25.3 mph /  40.7 km/h 25.3 mph /  40.7 km/h 63 % 0 in /  0.0 mm open2300-1.11 W/m2
08:12 56.5 °F /  13.6 °C 44.8 °F /  7.1 °C 29.9 in /  1012.8 hPa NE 15.8 mph /  25.4 km/h 15.8 mph /  25.4 km/h 65 % 0 in /  0.0 mm open2300-1.11 W/m2
09:12 57.6 °F /  14.2 °C 45.3 °F /  7.4 °C 29.9 in /  1012.8 hPa WNW 18.7 mph /  30.1 km/h 18.7 mph /  30.1 km/h 64 % 0 in /  0.0 mm open2300-1.11 W/m2
10:12 59.5 °F /  15.3 °C 46 °F /  7.8 °C 29.9 in /  1013.4 hPa NW 32.8 mph /  52.8 km/h 32.8 mph /  52.8 km/h 61 % 0 in /  0.0 mm open2300-1.11 W/m2
11:12 61.2 °F /  16.2 °C 47.3 °F /  8.5 °C 29.9 in /  1014.1 hPa NW 27.4 mph /  44.1 km/h 27.4 mph /  44.1 km/h 60 % 0 in /  0.0 mm open2300-1.11 W/m2
12:12 61.7 °F /  16.5 °C 46.2 °F /  7.9 °C 29.9 in /  1013.4 hPa NNW 15.1 mph /  24.3 km/h 28.8 mph /  46.3 km/h 57 % 0 in /  0.0 mm open2300-1.11 W/m2
13:12 63.1 °F /  17.3 °C 46 °F /  7.8 °C 29.9 in /  1013.1 hPa WNW 21.2 mph /  34.1 km/h 21.2 mph /  34.1 km/h 54 % 0 in /  0.0 mm open2300-1.11 W/m2
14:12 63.3 °F /  17.4 °C 46.2 °F /  7.9 °C 29.9 in /  1013.1 hPa North 14.3 mph /  23 km/h 21.9 mph /  35.2 km/h 54 % 0 in /  0.0 mm open2300-1.11 W/m2
15:12 63 °F /  17.2 °C 46 °F /  7.8 °C 29.9 in /  1013.1 hPa WNW 15.1 mph /  24.3 km/h 43.1 mph /  69.4 km/h 54 % 0 in /  0.0 mm open2300-1.11 W/m2
16:12 61 °F /  16.1 °C 46 °F /  7.8 °C 29.9 in /  1013.1 hPa NW 29.1 mph /  46.8 km/h 29.1 mph /  46.8 km/h 58 % 0 in /  0.0 mm open2300-1.11 W/m2
17:12 60.6 °F /  15.9 °C 46.2 °F /  7.9 °C 29.9 in /  1013.1 hPa West 24.8 mph /  39.9 km/h 27.7 mph /  44.6 km/h 59 % 0 in /  0.0 mm open2300-1.11 W/m2
18:12 59.7 °F /  15.4 °C 47.5 °F /  8.6 °C 29.9 in /  1012.8 hPa WNW 25.3 mph /  40.7 km/h 29.1 mph /  46.8 km/h 64 % 0 in /  0.0 mm open2300-1.11 W/m2
19:12 59.7 °F /  15.4 °C 47.8 °F /  8.8 °C 29.9 in /  1013.4 hPa NW 8.7 mph /  14 km/h 11.1 mph /  17.9 km/h 65 % 0 in /  0.0 mm open2300-1.11 W/m2
20:12 59.7 °F /  15.4 °C 48.7 °F /  9.3 °C 29.9 in /  1013.4 hPa NNW 14.3 mph /  23 km/h 28.8 mph /  46.3 km/h 67 % 0 in /  0.0 mm open2300-1.11 W/m2
21:12 58.3 °F /  14.6 °C 48.6 °F /  9.2 °C 29.9 in /  1013.1 hPa NNW 5.5 mph /  8.9 km/h 24.1 mph /  38.8 km/h 70 % 0 in /  0.0 mm open2300-1.11 W/m2
22:12 58.8 °F /  14.9 °C 45.3 °F /  7.4 °C 29.9 in /  1012.8 hPa NNW 28.2 mph /  45.4 km/h 28.2 mph /  45.4 km/h 61 % 0 in /  0.0 mm open2300-1.11 W/m2
23:12 57.9 °F /  14.4 °C 44.6 °F /  7.0 °C 29.9 in /  1013.4 hPa West 15.4 mph /  24.8 km/h 19.8 mph /  31.9 km/h 61 % 0 in /  0.0 mm open2300-1.11 W/m2
Observations météo à CASSIS
WU-History script by Weather Underground - 1 mb